createdAt,value
2018-12-06T00:00:33.048Z,20.63
2018-12-06T00:03:01.389Z,28.03
2018-12-06T00:05:29.767Z,32.80
2018-12-06T00:08:09.306Z,26.73
2018-12-06T00:10:37.718Z,23.77
2018-12-06T00:13:06.095Z,23.03
2018-12-06T00:15:34.485Z,21.93
2018-12-06T00:18:02.871Z,17.70
2018-12-06T00:20:31.348Z,19.93
2018-12-06T00:22:59.761Z,25.77
2018-12-06T00:25:28.209Z,26.03
2018-12-06T00:27:56.583Z,20.70
2018-12-06T00:30:34.128Z,27.13
2018-12-06T00:33:03.549Z,27.40
2018-12-06T00:35:32.041Z,35.97
2018-12-06T00:38:00.553Z,36.93
2018-12-06T00:40:29.055Z,28.27
2018-12-06T00:42:57.439Z,24.90
2018-12-06T00:45:26.049Z,30.13
2018-12-06T00:47:54.503Z,22.33
2018-12-06T00:50:22.900Z,74.70
2018-12-06T00:52:51.296Z,78.40
2018-12-06T00:55:19.718Z,36.50
2018-12-06T00:57:48.543Z,24.93
2018-12-06T01:00:17.123Z,16.40
2018-12-06T01:02:45.486Z,17.80
2018-12-06T01:05:13.879Z,20.73
2018-12-06T01:07:42.250Z,131.83
2018-12-06T01:10:10.873Z,52.17
2018-12-06T01:12:39.239Z,30.50
2018-12-06T01:15:07.708Z,28.07
2018-12-06T01:17:36.109Z,22.83
2018-12-06T01:20:05.503Z,20.00
2018-12-06T01:22:33.989Z,19.43
2018-12-06T01:25:02.457Z,19.37
2018-12-06T01:27:30.831Z,22.03
2018-12-06T01:29:59.203Z,24.03
2018-12-06T01:32:27.668Z,18.57
2018-12-06T01:34:56.030Z,19.23
2018-12-06T01:37:24.414Z,15.37
2018-12-06T01:39:52.797Z,19.27
2018-12-06T01:42:21.191Z,22.83
2018-12-06T01:44:49.585Z,17.50
2018-12-06T01:47:18.056Z,17.03
2018-12-06T01:49:46.409Z,20.03
2018-12-06T01:52:14.784Z,42.63
2018-12-06T01:54:43.156Z,34.97
2018-12-06T01:57:11.528Z,24.50
2018-12-06T01:59:39.899Z,17.30
2018-12-06T02:02:08.363Z,14.40
2018-12-06T02:04:36.740Z,17.57
2018-12-06T02:07:05.131Z,16.77
2018-12-06T02:09:33.521Z,18.80
2018-12-06T02:12:01.907Z,20.37
2018-12-06T02:14:30.289Z,15.27
2018-12-06T02:16:58.692Z,16.53
2018-12-06T02:19:27.576Z,17.07
2018-12-06T02:21:55.915Z,16.27
2018-12-06T02:24:24.309Z,18.40
2018-12-06T02:26:52.679Z,20.80
2018-12-06T02:29:21.130Z,22.20
2018-12-06T02:31:49.554Z,20.83
2018-12-06T02:34:17.940Z,14.33
2018-12-06T02:36:46.321Z,19.23
2018-12-06T02:39:14.682Z,19.93
2018-12-06T02:41:43.224Z,16.30
2018-12-06T02:44:11.766Z,16.50
2018-12-06T02:46:40.114Z,16.00
2018-12-06T02:49:08.486Z,15.97
2018-12-06T02:51:36.846Z,14.23
2018-12-06T02:54:05.208Z,18.63
2018-12-06T02:56:33.562Z,17.73
2018-12-06T02:59:02.044Z,17.83
2018-12-06T03:01:30.543Z,14.30
2018-12-06T03:03:58.898Z,13.57
2018-12-06T03:06:27.260Z,14.50
2018-12-06T03:08:55.616Z,16.03
2018-12-06T03:11:24.001Z,16.90
2018-12-06T03:13:52.408Z,19.97
2018-12-06T03:16:20.867Z,23.90
2018-12-06T03:18:49.221Z,21.67
2018-12-06T03:21:17.613Z,18.37
2018-12-06T03:23:45.987Z,18.20
2018-12-06T03:26:14.352Z,18.30
2018-12-06T03:28:42.725Z,18.10
2018-12-06T03:31:11.109Z,16.90
2018-12-06T03:33:39.488Z,17.37
2018-12-06T03:36:07.862Z,16.53
2018-12-06T03:38:36.246Z,23.33
2018-12-06T03:41:04.602Z,16.43
2018-12-06T03:43:33.067Z,16.93
2018-12-06T03:46:01.450Z,15.47
2018-12-06T03:48:29.817Z,21.83
2018-12-06T03:50:58.422Z,21.17
2018-12-06T03:53:26.792Z,18.03
2018-12-06T03:55:55.174Z,21.17
2018-12-06T03:58:23.531Z,18.37
2018-12-06T04:00:51.904Z,21.57
2018-12-06T04:03:20.328Z,23.63
2018-12-06T04:05:48.692Z,21.33
2018-12-06T04:08:17.066Z,18.13
2018-12-06T04:10:45.459Z,17.57
2018-12-06T04:13:13.817Z,18.67
2018-12-06T04:15:42.206Z,25.83
2018-12-06T04:18:10.582Z,19.30
2018-12-06T04:20:38.940Z,24.07
2018-12-06T04:23:07.321Z,19.43
2018-12-06T04:25:35.708Z,26.80
2018-12-06T04:28:04.082Z,19.83
2018-12-06T04:30:32.483Z,22.90
2018-12-06T04:33:00.834Z,29.07
2018-12-06T04:35:29.212Z,28.27
2018-12-06T04:37:57.612Z,32.47
2018-12-06T04:40:26.016Z,30.47
2018-12-06T04:42:54.367Z,33.77
2018-12-06T04:45:22.748Z,29.47
2018-12-06T04:47:51.139Z,34.67
2018-12-06T04:50:19.530Z,32.20
2018-12-06T04:52:47.906Z,35.10
2018-12-06T04:55:16.295Z,44.23
2018-12-06T04:57:44.747Z,41.37
2018-12-06T05:00:13.184Z,36.23
2018-12-06T05:02:41.549Z,31.50
2018-12-06T05:05:10.211Z,27.97
2018-12-06T05:07:38.553Z,28.13
2018-12-06T05:10:07.148Z,28.10
2018-12-06T05:12:35.512Z,27.50
2018-12-06T05:15:04.105Z,28.33
2018-12-06T05:17:32.560Z,28.60
2018-12-06T05:20:00.982Z,28.10
2018-12-06T05:22:29.386Z,28.73
2018-12-06T05:24:57.894Z,29.17
2018-12-06T05:27:26.936Z,27.80
2018-12-06T05:29:55.334Z,27.53
2018-12-06T05:32:23.684Z,26.60
2018-12-06T05:34:52.071Z,34.37
2018-12-06T05:37:20.435Z,33.07
2018-12-06T05:39:48.808Z,32.40
2018-12-06T05:42:17.185Z,40.83
2018-12-06T05:44:45.555Z,34.00
2018-12-06T05:47:13.939Z,38.90
2018-12-06T05:49:42.304Z,32.57
2018-12-06T05:52:10.721Z,31.03
2018-12-06T05:54:39.063Z,34.07
2018-12-06T05:57:07.445Z,37.57
2018-12-06T05:59:35.861Z,30.40
2018-12-06T06:02:04.237Z,36.53
2018-12-06T06:04:32.611Z,37.07
2018-12-06T06:07:02.025Z,39.77
2018-12-06T06:09:30.938Z,37.43
2018-12-06T06:11:59.303Z,45.40
2018-12-06T06:14:27.673Z,35.77
2018-12-06T06:16:56.216Z,35.47
2018-12-06T06:19:24.586Z,38.90
2018-12-06T06:21:52.965Z,34.73
2018-12-06T06:24:21.411Z,45.53
2018-12-06T06:26:49.749Z,44.23
2018-12-06T06:29:18.147Z,40.47
2018-12-06T06:31:46.494Z,36.67
2018-12-06T06:34:14.867Z,33.07
2018-12-06T06:36:43.268Z,35.93
2018-12-06T06:39:11.662Z,26.87
2018-12-06T06:41:40.044Z,43.80
2018-12-06T06:44:08.504Z,34.00
2018-12-06T06:46:36.846Z,37.70
2018-12-06T06:49:05.224Z,49.07
2018-12-06T06:51:33.604Z,65.90
2018-12-06T06:54:02.043Z,29.97
2018-12-06T06:56:30.525Z,28.67
2018-12-06T06:58:58.899Z,30.63
2018-12-06T07:01:27.293Z,35.10
2018-12-06T07:03:55.722Z,38.47
2018-12-06T07:06:24.060Z,43.70
2018-12-06T07:08:52.382Z,38.77
2018-12-06T07:11:20.686Z,32.17
2018-12-06T07:13:49.037Z,38.73
2018-12-06T07:16:17.399Z,34.00
2018-12-06T07:18:45.721Z,73.57
2018-12-06T07:21:14.043Z,42.23
2018-12-06T07:23:42.375Z,69.93
2018-12-06T07:26:10.716Z,478.33
2018-12-06T07:28:39.066Z,411.00
2018-12-06T07:31:08.451Z,507.57
2018-12-06T07:33:36.782Z,428.53
2018-12-06T07:36:05.131Z,179.73
2018-12-06T07:38:34.271Z,160.63
2018-12-06T07:41:02.597Z,118.00
2018-12-06T07:43:30.928Z,107.37
2018-12-06T07:46:05.463Z,59.03
2018-12-06T07:48:33.813Z,181.33
2018-12-06T07:51:02.175Z,172.57
2018-12-06T07:53:30.497Z,40.20
2018-12-06T07:55:58.833Z,25.60
2018-12-06T07:58:27.160Z,55.13
2018-12-06T08:00:59.475Z,243.77
2018-12-06T08:03:32.390Z,104.67
2018-12-06T08:06:00.874Z,102.73
2018-12-06T08:08:29.195Z,134.13
2018-12-06T08:10:57.508Z,35.90
2018-12-06T08:13:25.854Z,37.37
2018-12-06T08:15:54.175Z,30.70
2018-12-06T08:18:29.059Z,41.30
2018-12-06T08:20:57.381Z,59.50
2018-12-06T08:23:26.122Z,33.10
2018-12-06T08:25:54.453Z,31.90
2018-12-06T08:28:22.763Z,35.13
2018-12-06T08:30:51.132Z,38.03
2018-12-06T08:33:24.943Z,34.13
2018-12-06T08:35:53.388Z,37.67
2018-12-06T08:38:22.980Z,31.40
2018-12-06T08:40:51.317Z,27.80
2018-12-06T08:43:19.667Z,20.03
2018-12-06T08:45:49.338Z,28.97
2018-12-06T08:48:20.330Z,31.07
2018-12-06T08:50:49.509Z,33.60
2018-12-06T08:53:17.947Z,29.17
2018-12-06T08:55:46.297Z,22.63
2018-12-06T08:58:14.624Z,30.43
2018-12-06T09:00:43.004Z,26.30
2018-12-06T09:03:11.427Z,36.90
2018-12-06T09:05:39.748Z,34.37
2018-12-06T09:08:08.231Z,35.23
2018-12-06T09:10:36.703Z,36.97
2018-12-06T09:13:05.170Z,36.57
2018-12-06T09:15:33.503Z,31.23
2018-12-06T09:18:03.699Z,36.70
2018-12-06T09:20:32.049Z,29.33
2018-12-06T09:23:01.143Z,34.53
2018-12-06T09:25:29.493Z,28.83
2018-12-06T09:27:57.822Z,42.80
2018-12-06T09:30:26.251Z,31.80
2018-12-06T09:32:54.621Z,32.57
2018-12-06T09:35:22.981Z,38.13
2018-12-06T09:37:53.193Z,40.60
2018-12-06T09:40:30.846Z,34.53
2018-12-06T09:42:59.846Z,31.50
2018-12-06T09:45:28.222Z,30.83
2018-12-06T09:47:56.566Z,30.73
2018-12-06T09:50:25.280Z,33.63
2018-12-06T09:52:53.607Z,29.13
2018-12-06T09:55:21.936Z,39.13
2018-12-06T09:57:50.258Z,30.43
2018-12-06T10:00:18.583Z,36.90
2018-12-06T10:02:46.931Z,30.97
2018-12-06T10:05:15.289Z,30.07
2018-12-06T10:07:48.132Z,32.43
2018-12-06T10:10:16.453Z,31.47
2018-12-06T10:12:45.146Z,27.87
2018-12-06T10:15:13.620Z,30.97
2018-12-06T10:17:41.942Z,29.57
2018-12-06T10:20:10.665Z,29.23
2018-12-06T10:22:39.109Z,22.17
2018-12-06T10:25:07.802Z,22.07
2018-12-06T10:27:36.142Z,31.30
2018-12-06T10:30:05.730Z,24.50
2018-12-06T10:32:34.079Z,29.73
2018-12-06T10:35:02.453Z,23.23
2018-12-06T10:37:31.316Z,26.63
2018-12-06T10:39:59.708Z,21.83
2018-12-06T10:42:31.707Z,22.37
2018-12-06T10:45:01.928Z,22.70
2018-12-06T10:47:30.297Z,21.23
2018-12-06T10:49:58.702Z,24.73
2018-12-06T10:52:27.114Z,22.03
2018-12-06T10:54:55.727Z,25.30
2018-12-06T10:57:24.127Z,25.83
2018-12-06T10:59:57.797Z,22.33
2018-12-06T11:03:30.161Z,26.20
2018-12-06T11:05:59.309Z,26.37
2018-12-06T11:08:27.899Z,23.20
2018-12-06T11:10:59.158Z,22.57
2018-12-06T11:13:27.495Z,30.90
2018-12-06T11:15:55.854Z,27.83
2018-12-06T11:18:24.212Z,22.57
2018-12-06T11:20:52.573Z,21.97
2018-12-06T11:23:20.955Z,20.13
2018-12-06T11:25:51.280Z,22.90
2018-12-06T11:28:20.285Z,19.20
2018-12-06T11:30:48.994Z,20.20
2018-12-06T11:33:21.861Z,23.23
2018-12-06T11:35:50.234Z,19.53
2018-12-06T11:38:18.620Z,25.43
2018-12-06T11:40:47.080Z,20.63
2018-12-06T11:43:15.452Z,19.73
2018-12-06T11:45:43.900Z,20.33
2018-12-06T11:48:12.264Z,18.63
2018-12-06T11:50:40.643Z,17.87
2018-12-06T11:53:09.047Z,20.87
2018-12-06T11:55:37.388Z,18.40
2018-12-06T11:58:11.427Z,17.43
2018-12-06T12:00:36.509Z,17.90
2018-12-06T12:03:04.860Z,18.87
2018-12-06T12:05:33.239Z,17.40
2018-12-06T12:08:01.609Z,19.20
2018-12-06T12:10:30.211Z,20.57
2018-12-06T12:12:59.098Z,21.10
2018-12-06T12:15:27.571Z,18.00
2018-12-06T12:17:55.969Z,16.43
2018-12-06T12:20:24.326Z,16.50
2018-12-06T12:22:52.683Z,16.93
2018-12-06T12:25:21.026Z,17.83
2018-12-06T12:27:49.436Z,22.63
2018-12-06T12:30:17.910Z,30.23
2018-12-06T12:32:46.932Z,26.03
2018-12-06T12:35:15.548Z,44.70
2018-12-06T12:37:43.969Z,45.00
2018-12-06T12:40:12.869Z,38.60
2018-12-06T12:42:41.361Z,51.50
2018-12-06T12:45:09.922Z,22.03
2018-12-06T12:47:38.447Z,19.07
2018-12-06T12:50:08.604Z,14.20
2018-12-06T12:52:37.131Z,29.57
2018-12-06T12:55:06.423Z,368.13
2018-12-06T12:57:34.815Z,257.20
2018-12-06T13:00:04.431Z,183.93
2018-12-06T13:02:32.834Z,136.37
2018-12-06T13:05:01.208Z,150.77
2018-12-06T13:07:30.925Z,98.03
2018-12-06T13:09:59.364Z,389.20
2018-12-06T13:12:27.805Z,448.40
2018-12-06T13:14:56.352Z,258.07
2018-12-06T13:17:24.815Z,133.10
2018-12-06T13:19:53.407Z,106.67
2018-12-06T13:22:22.891Z,134.90
2018-12-06T13:24:51.286Z,32.70
2018-12-06T13:27:19.649Z,188.03
2018-12-06T13:29:48.018Z,140.23
2018-12-06T13:32:16.363Z,53.47
2018-12-06T13:34:44.712Z,108.47
2018-12-06T13:37:13.040Z,80.50
2018-12-06T13:39:41.455Z,21.47
2018-12-06T13:42:09.806Z,22.47
2018-12-06T13:44:38.172Z,27.57
2018-12-06T13:47:06.898Z,13.53
2018-12-06T13:49:35.360Z,20.13
2018-12-06T13:52:04.223Z,16.83
2018-12-06T13:54:34.588Z,17.10
2018-12-06T13:57:03.561Z,18.60
2018-12-06T13:59:31.945Z,10.97
2018-12-06T14:02:00.605Z,6.57
2018-12-06T14:04:28.963Z,7.00
2018-12-06T14:07:01.301Z,12.83
2018-12-06T14:09:29.686Z,10.13
2018-12-06T14:11:58.142Z,7.30
2018-12-06T14:14:27.467Z,12.00
2018-12-06T14:16:56.103Z,11.00
2018-12-06T14:19:24.483Z,9.17
2018-12-06T14:21:52.873Z,21.80
2018-12-06T14:24:21.338Z,9.37
2018-12-06T14:26:49.772Z,7.07
2018-12-06T14:29:18.319Z,10.20
2018-12-06T14:31:46.682Z,7.03
2018-12-06T14:34:15.130Z,6.80
2018-12-06T14:36:43.498Z,7.37
2018-12-06T14:39:12.003Z,5.67
2018-12-06T14:41:40.355Z,7.80
2018-12-06T14:44:08.718Z,7.03
2018-12-06T14:46:37.103Z,8.37
2018-12-06T14:49:05.558Z,8.07
2018-12-06T14:51:36.123Z,10.70
2018-12-06T14:54:04.486Z,9.77
2018-12-06T14:56:32.856Z,20.13
2018-12-06T14:59:01.245Z,13.77
2018-12-06T15:01:29.622Z,10.33
2018-12-06T15:03:58.060Z,8.90
2018-12-06T15:06:26.624Z,9.40
2018-12-06T15:08:54.930Z,8.93
2018-12-06T15:11:23.341Z,7.73
2018-12-06T15:13:51.728Z,8.93
2018-12-06T15:16:20.281Z,7.27
2018-12-06T15:18:48.632Z,7.07
2018-12-06T15:21:17.040Z,7.47
2018-12-06T15:23:45.453Z,9.70
2018-12-06T15:26:14.346Z,8.20
2018-12-06T15:28:42.829Z,8.07
2018-12-06T15:31:15.438Z,13.70
2018-12-06T15:33:43.816Z,10.17
2018-12-06T15:36:12.294Z,11.13
2018-12-06T15:38:40.817Z,11.10
2018-12-06T15:41:09.216Z,9.53
2018-12-06T15:43:37.575Z,9.90
2018-12-06T15:46:06.795Z,8.63
2018-12-06T15:48:36.158Z,11.50
2018-12-06T15:51:04.984Z,11.40
2018-12-06T15:53:33.700Z,11.37
2018-12-06T15:56:06.674Z,10.03
2018-12-06T15:58:35.170Z,10.93
2018-12-06T16:01:04.492Z,13.23
2018-12-06T16:03:32.892Z,8.70
2018-12-06T16:06:01.306Z,11.10
2018-12-06T16:08:29.922Z,12.13
2018-12-06T16:10:58.466Z,15.93
2018-12-06T16:13:27.000Z,14.73
2018-12-06T16:15:55.400Z,13.17
2018-12-06T16:18:25.557Z,13.97
2018-12-06T16:20:55.369Z,12.47
2018-12-06T16:23:24.083Z,13.87
2018-12-06T16:25:52.426Z,15.73
2018-12-06T16:28:20.801Z,15.53
2018-12-06T16:30:49.210Z,18.27
2018-12-06T16:33:18.206Z,14.73
2018-12-06T16:35:46.641Z,12.77
2018-12-06T16:38:15.078Z,13.80
2018-12-06T16:40:43.536Z,12.37
2018-12-06T16:43:12.008Z,12.23
2018-12-06T16:45:40.357Z,11.50
2018-12-06T16:48:08.758Z,12.70
2018-12-06T16:50:37.235Z,13.63
2018-12-06T16:53:05.608Z,12.13
2018-12-06T16:55:34.012Z,10.43
2018-12-06T16:58:02.533Z,9.87
2018-12-06T17:00:31.118Z,9.57
2018-12-06T17:03:04.113Z,9.50
2018-12-06T17:05:32.638Z,9.93
2018-12-06T17:08:01.300Z,8.07
2018-12-06T17:10:29.669Z,9.23
2018-12-06T17:12:58.041Z,9.37
2018-12-06T17:15:26.415Z,7.87
2018-12-06T17:17:54.775Z,6.13
2018-12-06T17:20:23.491Z,6.93
2018-12-06T17:22:51.940Z,8.00
2018-12-06T17:25:20.286Z,7.57
2018-12-06T17:27:54.692Z,8.13
2018-12-06T17:30:23.081Z,6.90
2018-12-06T17:32:51.452Z,7.67
2018-12-06T17:35:19.821Z,8.70
2018-12-06T17:37:48.179Z,6.90
2018-12-06T17:40:16.582Z,7.30
2018-12-06T17:42:44.985Z,8.93
2018-12-06T17:45:13.502Z,10.57
2018-12-06T17:47:41.914Z,9.07
2018-12-06T17:50:10.367Z,7.73
2018-12-06T17:52:38.853Z,7.40
2018-12-06T17:55:09.420Z,6.73
2018-12-06T17:57:38.394Z,8.27
2018-12-06T18:00:08.891Z,7.57
2018-12-06T18:02:37.233Z,6.97
2018-12-06T18:05:06.660Z,7.33
2018-12-06T18:07:35.037Z,7.57
2018-12-06T18:10:03.840Z,7.93
2018-12-06T18:12:32.299Z,8.80
2018-12-06T18:15:00.681Z,10.20
2018-12-06T18:17:29.089Z,9.87
2018-12-06T18:19:57.461Z,10.27
2018-12-06T18:22:25.798Z,9.83
2018-12-06T18:24:54.203Z,10.07
2018-12-06T18:27:22.690Z,15.33
2018-12-06T18:29:51.022Z,41.23
2018-12-06T18:32:19.400Z,15.73
2018-12-06T18:34:47.762Z,11.00
2018-12-06T18:37:18.064Z,5.77
2018-12-06T18:39:46.427Z,6.30
2018-12-06T18:42:14.800Z,4.93
2018-12-06T18:44:43.130Z,6.67
2018-12-06T18:47:11.506Z,5.43
2018-12-06T18:49:39.891Z,35.00
2018-12-06T18:52:08.359Z,131.10
2018-12-06T18:54:36.731Z,37.57
2018-12-06T18:57:09.556Z,25.23
2018-12-06T18:59:37.911Z,49.20
2018-12-06T19:02:07.055Z,25.60
2018-12-06T19:04:35.515Z,40.00
2018-12-06T19:07:03.892Z,28.87
2018-12-06T19:09:32.272Z,13.80
2018-12-06T19:12:00.653Z,65.43
2018-12-06T19:14:29.039Z,17.20
2018-12-06T19:16:57.595Z,42.40
2018-12-06T19:19:25.955Z,39.60
2018-12-06T19:21:54.343Z,27.67
2018-12-06T19:24:22.723Z,13.10
2018-12-06T19:26:51.103Z,14.30
2018-12-06T19:29:19.587Z,36.70
2018-12-06T19:31:47.936Z,13.73
2018-12-06T19:34:16.460Z,22.80
2018-12-06T19:36:44.831Z,34.30
2018-12-06T19:39:13.226Z,50.33
2018-12-06T19:41:46.047Z,29.17
2018-12-06T19:44:14.737Z,19.57
2018-12-06T19:46:43.092Z,33.47
2018-12-06T19:49:17.012Z,20.37
2018-12-06T19:51:45.348Z,61.43
2018-12-06T19:54:14.019Z,28.20
2018-12-06T19:56:42.400Z,44.70
2018-12-06T19:59:10.765Z,17.70
2018-12-06T20:01:39.161Z,16.03
2018-12-06T20:04:07.535Z,27.30
2018-12-06T20:06:35.898Z,17.23
2018-12-06T20:09:08.105Z,11.63
2018-12-06T20:11:36.448Z,16.23
2018-12-06T20:14:04.988Z,18.33
2018-12-06T20:16:33.369Z,13.50
2018-12-06T20:19:01.767Z,23.50
2018-12-06T20:21:30.187Z,10.20
2018-12-06T20:23:58.558Z,11.60
2018-12-06T20:26:26.920Z,13.13
2018-12-06T20:28:55.273Z,13.10
2018-12-06T20:34:02.828Z,11.07
2018-12-06T20:36:31.197Z,8.20
2018-12-06T20:38:59.692Z,47.10
2018-12-06T20:41:28.126Z,16.33
2018-12-06T20:43:56.494Z,84.43
2018-12-06T20:46:24.860Z,29.23
2018-12-06T20:48:53.273Z,39.90
2018-12-06T20:51:21.657Z,56.40
2018-12-06T20:53:50.030Z,21.83
2018-12-06T20:56:18.426Z,19.50
2018-12-06T20:58:46.775Z,4.93
2018-12-06T21:01:15.129Z,16.47
2018-12-06T21:03:43.507Z,11.30
2018-12-06T21:06:11.901Z,8.00
2018-12-06T21:08:40.265Z,7.17
2018-12-06T21:11:08.593Z,9.57
2018-12-06T21:13:36.965Z,18.83
2018-12-06T21:16:05.337Z,18.00
2018-12-06T21:18:33.708Z,13.50
2018-12-06T21:21:02.182Z,11.50
2018-12-06T21:23:30.536Z,15.57
2018-12-06T21:25:58.964Z,21.03
2018-12-06T21:28:27.429Z,10.77
2018-12-06T21:30:55.811Z,20.67
2018-12-06T21:33:24.215Z,17.40
2018-12-06T21:35:52.536Z,23.20
2018-12-06T21:38:20.884Z,18.20
2018-12-06T21:40:49.289Z,14.37
2018-12-06T21:43:17.672Z,18.30
2018-12-06T21:45:46.055Z,15.57
2018-12-06T21:48:14.428Z,27.10
2018-12-06T21:50:42.779Z,18.53
2018-12-06T21:53:11.138Z,21.77
2018-12-06T21:55:39.608Z,13.97
2018-12-06T21:58:07.989Z,12.40
2018-12-06T22:00:36.348Z,15.20
2018-12-06T22:03:04.890Z,14.67
2018-12-06T22:05:33.259Z,10.27
2018-12-06T22:08:01.724Z,12.00
2018-12-06T22:10:30.121Z,12.63
2018-12-06T22:12:58.468Z,11.20
2018-12-06T22:15:26.807Z,11.23
2018-12-06T22:17:55.196Z,6.80
2018-12-06T22:20:23.518Z,5.33
2018-12-06T22:22:51.890Z,5.43
2018-12-06T22:25:20.232Z,6.57
2018-12-06T22:27:48.574Z,5.93
2018-12-06T22:30:16.915Z,6.43
2018-12-06T22:32:45.576Z,6.80
2018-12-06T22:35:14.032Z,6.90
2018-12-06T22:37:42.389Z,4.40
2018-12-06T22:40:10.743Z,5.53
2018-12-06T22:42:39.117Z,4.10
2018-12-06T22:45:18.299Z,5.20
2018-12-06T22:47:46.671Z,4.30
2018-12-06T22:50:15.224Z,4.03
2018-12-06T22:52:43.582Z,4.07
2018-12-06T22:55:12.033Z,3.20
2018-12-06T22:57:40.362Z,3.60
2018-12-06T23:00:12.743Z,4.30
2018-12-06T23:02:41.048Z,1.97
2018-12-06T23:05:09.414Z,2.30
2018-12-06T23:07:37.808Z,2.30
2018-12-06T23:10:06.558Z,2.03
2018-12-06T23:12:34.915Z,1.20
2018-12-06T23:15:03.271Z,2.00
2018-12-06T23:17:31.594Z,1.43
2018-12-06T23:20:00.080Z,1.60
2018-12-06T23:22:28.446Z,2.57
2018-12-06T23:24:56.790Z,2.17
2018-12-06T23:27:25.103Z,1.67
2018-12-06T23:29:53.442Z,0.97
2018-12-06T23:32:21.787Z,1.33
2018-12-06T23:34:50.123Z,1.30
2018-12-06T23:37:18.473Z,1.50
2018-12-06T23:39:46.830Z,1.33
2018-12-06T23:42:15.190Z,1.77
2018-12-06T23:44:43.635Z,1.50
2018-12-06T23:47:11.987Z,2.63
2018-12-06T23:49:41.764Z,1.73
2018-12-06T23:52:10.172Z,1.40
2018-12-06T23:54:38.515Z,2.80
2018-12-06T23:57:06.862Z,2.30
2018-12-06T23:59:35.157Z,2.00
